createdAt,value
2023-01-09T00:00:29.964Z,993.48
2023-01-09T00:01:29.897Z,993.54
2023-01-09T00:02:29.919Z,993.51
2023-01-09T00:03:29.932Z,993.56
2023-01-09T00:04:29.917Z,993.54
2023-01-09T00:05:29.904Z,993.51
2023-01-09T00:06:29.916Z,993.48
2023-01-09T00:07:29.920Z,993.43
2023-01-09T00:08:29.912Z,993.43
2023-01-09T00:09:29.917Z,993.42
2023-01-09T00:10:29.925Z,993.41
2023-01-09T00:11:29.946Z,993.38
2023-01-09T00:12:29.930Z,993.40
2023-01-09T00:13:29.926Z,993.38
2023-01-09T00:14:29.952Z,993.36
2023-01-09T00:15:29.951Z,993.36
2023-01-09T00:16:29.980Z,993.30
2023-01-09T00:17:29.951Z,993.29
2023-01-09T00:18:29.943Z,993.27
2023-01-09T00:19:29.949Z,993.23
2023-01-09T00:20:29.953Z,993.24
2023-01-09T00:21:29.961Z,993.22
2023-01-09T00:22:29.954Z,993.21
2023-01-09T00:23:29.966Z,993.17
2023-01-09T00:24:29.963Z,993.17
2023-01-09T00:25:29.965Z,993.17
2023-01-09T00:26:29.972Z,993.16
2023-01-09T00:27:29.963Z,993.14
2023-01-09T00:28:29.973Z,993.15
2023-01-09T00:29:29.982Z,993.09
2023-01-09T00:30:30.054Z,993.08
2023-01-09T00:31:29.973Z,993.04
2023-01-09T00:32:29.981Z,993.02
2023-01-09T00:33:29.984Z,993.05
2023-01-09T00:34:29.985Z,992.98
2023-01-09T00:35:29.994Z,992.98
2023-01-09T00:36:30.038Z,993.00
2023-01-09T00:37:30.005Z,992.96
2023-01-09T00:38:30.003Z,992.90
2023-01-09T00:39:30.000Z,992.92
2023-01-09T00:40:30.009Z,992.85
2023-01-09T00:41:30.009Z,992.89
2023-01-09T00:42:30.016Z,992.88
2023-01-09T00:43:30.039Z,992.85
2023-01-09T00:44:30.017Z,992.88
2023-01-09T00:45:30.019Z,992.90
2023-01-09T00:46:30.047Z,992.95
2023-01-09T00:47:30.030Z,992.98
2023-01-09T00:48:30.051Z,993.02
2023-01-09T00:49:30.034Z,993.02
2023-01-09T00:50:30.030Z,993.04
2023-01-09T00:51:30.036Z,993.05
2023-01-09T00:52:30.048Z,993.10
2023-01-09T00:53:30.046Z,993.07
2023-01-09T00:54:30.040Z,993.10
2023-01-09T00:55:30.052Z,993.04
2023-01-09T00:56:30.054Z,993.02
2023-01-09T00:57:30.047Z,992.95
2023-01-09T00:58:30.059Z,992.90
2023-01-09T00:59:30.057Z,992.89
2023-01-09T01:00:30.070Z,992.82
2023-01-09T01:01:30.156Z,992.85
2023-01-09T01:02:30.213Z,992.78
2023-01-09T01:03:30.076Z,992.75
2023-01-09T01:04:30.071Z,992.70
2023-01-09T01:05:30.076Z,992.67
2023-01-09T01:06:30.083Z,992.67
2023-01-09T01:07:30.084Z,992.68
2023-01-09T01:08:30.091Z,992.68
2023-01-09T01:09:30.098Z,992.69
2023-01-09T01:10:30.090Z,992.67
2023-01-09T01:11:30.097Z,992.60
2023-01-09T01:12:30.104Z,992.57
2023-01-09T01:13:30.096Z,992.57
2023-01-09T01:14:30.111Z,992.55
2023-01-09T01:15:30.114Z,992.56
2023-01-09T01:16:30.196Z,992.61
2023-01-09T01:17:30.133Z,992.55
2023-01-09T01:18:30.140Z,992.57
2023-01-09T01:19:30.124Z,992.54
2023-01-09T01:20:30.134Z,992.43
2023-01-09T01:21:30.123Z,992.37
2023-01-09T01:22:30.130Z,992.29
2023-01-09T01:23:30.132Z,992.34
2023-01-09T01:24:30.138Z,992.28
2023-01-09T01:25:30.131Z,992.29
2023-01-09T01:26:30.131Z,992.30
2023-01-09T01:27:30.143Z,992.31
2023-01-09T01:28:30.139Z,992.31
2023-01-09T01:29:30.171Z,992.30
2023-01-09T01:30:30.177Z,992.33
2023-01-09T01:31:30.147Z,992.32
2023-01-09T01:32:30.162Z,992.42
2023-01-09T01:33:30.160Z,992.48
2023-01-09T01:34:30.180Z,992.49
2023-01-09T01:35:30.161Z,992.52
2023-01-09T01:36:30.165Z,992.54
2023-01-09T01:37:30.173Z,992.53
2023-01-09T01:38:30.179Z,992.52
2023-01-09T01:39:30.190Z,992.47
2023-01-09T01:40:30.187Z,992.51
2023-01-09T01:41:30.181Z,992.44
2023-01-09T01:42:30.181Z,992.35
2023-01-09T01:43:30.194Z,992.39
2023-01-09T01:44:30.195Z,992.42
2023-01-09T01:45:30.212Z,992.48
2023-01-09T01:46:30.218Z,992.51
2023-01-09T01:47:30.201Z,992.50
2023-01-09T01:48:30.200Z,992.44
2023-01-09T01:49:30.208Z,992.49
2023-01-09T01:50:30.246Z,992.53
2023-01-09T01:51:30.216Z,992.54
2023-01-09T01:52:30.218Z,992.52
2023-01-09T01:53:30.211Z,992.53
2023-01-09T01:54:30.216Z,992.52
2023-01-09T01:55:30.222Z,992.51
2023-01-09T01:56:35.382Z,992.53
2023-01-09T01:57:30.235Z,992.56
2023-01-09T01:58:30.240Z,992.52
2023-01-09T01:59:30.241Z,992.52
2023-01-09T02:00:30.241Z,992.52
2023-01-09T02:01:30.436Z,992.47
2023-01-09T02:02:30.409Z,992.43
2023-01-09T02:03:30.243Z,992.39
2023-01-09T02:04:30.247Z,992.42
2023-01-09T02:05:30.261Z,992.38
2023-01-09T02:06:30.279Z,992.34
2023-01-09T02:07:30.255Z,992.40
2023-01-09T02:08:30.254Z,992.42
2023-01-09T02:09:30.271Z,992.39
2023-01-09T02:10:30.268Z,992.42
2023-01-09T02:11:30.278Z,992.38
2023-01-09T02:12:30.275Z,992.36
2023-01-09T02:13:30.282Z,992.39
2023-01-09T02:14:30.275Z,992.33
2023-01-09T02:15:30.283Z,992.31
2023-01-09T02:16:30.280Z,992.32
2023-01-09T02:17:30.296Z,992.32
2023-01-09T02:18:30.296Z,992.26
2023-01-09T02:19:30.284Z,992.20
2023-01-09T02:20:30.299Z,992.24
2023-01-09T02:21:30.303Z,992.24
2023-01-09T02:22:30.330Z,992.28
2023-01-09T02:23:30.309Z,992.25
2023-01-09T02:24:30.304Z,992.26
2023-01-09T02:25:30.313Z,992.27
2023-01-09T02:26:30.332Z,992.25
2023-01-09T02:27:30.319Z,992.23
2023-01-09T02:28:30.326Z,992.24
2023-01-09T02:29:30.323Z,992.18
2023-01-09T02:30:30.328Z,992.16
2023-01-09T02:31:30.371Z,992.17
2023-01-09T02:32:30.325Z,992.18
2023-01-09T02:33:30.339Z,992.16
2023-01-09T02:34:30.339Z,992.19
2023-01-09T02:35:30.345Z,992.20
2023-01-09T02:36:30.352Z,992.18
2023-01-09T02:37:30.343Z,992.19
2023-01-09T02:38:30.370Z,992.17
2023-01-09T02:39:30.384Z,992.19
2023-01-09T02:40:30.361Z,992.13
2023-01-09T02:41:30.353Z,992.11
2023-01-09T02:42:30.356Z,992.10
2023-01-09T02:43:30.370Z,991.99
2023-01-09T02:44:30.372Z,992.02
2023-01-09T02:45:30.398Z,992.01
2023-01-09T02:46:30.372Z,991.96
2023-01-09T02:47:30.378Z,991.99
2023-01-09T02:48:30.396Z,991.95
2023-01-09T02:49:30.416Z,991.95
2023-01-09T02:50:30.389Z,991.90
2023-01-09T02:51:30.390Z,991.91
2023-01-09T02:52:30.408Z,991.87
2023-01-09T02:53:30.394Z,991.89
2023-01-09T02:54:30.420Z,991.84
2023-01-09T02:55:30.398Z,991.87
2023-01-09T02:56:30.397Z,991.82
2023-01-09T02:57:30.408Z,991.75
2023-01-09T02:58:30.411Z,991.76
2023-01-09T02:59:30.419Z,991.77
2023-01-09T03:00:30.425Z,991.80
2023-01-09T03:01:30.556Z,991.74
2023-01-09T03:02:30.414Z,991.74
2023-01-09T03:03:30.424Z,991.69
2023-01-09T03:04:30.424Z,991.63
2023-01-09T03:05:30.436Z,991.58
2023-01-09T03:06:30.434Z,991.54
2023-01-09T03:07:30.431Z,991.56
2023-01-09T03:08:30.431Z,991.52
2023-01-09T03:09:30.437Z,991.45
2023-01-09T03:10:30.469Z,991.38
2023-01-09T03:11:30.444Z,991.43
2023-01-09T03:12:30.459Z,991.41
2023-01-09T03:13:30.456Z,991.37
2023-01-09T03:14:30.450Z,991.40
2023-01-09T03:15:30.460Z,991.40
2023-01-09T03:16:30.547Z,991.38
2023-01-09T03:17:30.460Z,991.40
2023-01-09T03:18:30.469Z,991.40
2023-01-09T03:19:30.476Z,991.35
2023-01-09T03:20:30.467Z,991.34
2023-01-09T03:21:30.483Z,991.36
2023-01-09T03:22:30.473Z,991.43
2023-01-09T03:23:30.484Z,991.42
2023-01-09T03:24:30.494Z,991.52
2023-01-09T03:25:30.498Z,991.53
2023-01-09T03:26:30.512Z,991.54
2023-01-09T03:27:30.506Z,991.56
2023-01-09T03:28:30.494Z,991.53
2023-01-09T03:29:30.502Z,991.56
2023-01-09T03:30:30.511Z,991.59
2023-01-09T03:31:30.552Z,991.58
2023-01-09T03:32:30.507Z,991.58
2023-01-09T03:33:30.513Z,991.53
2023-01-09T03:34:30.512Z,991.54
2023-01-09T03:35:30.530Z,991.50
2023-01-09T03:36:30.527Z,991.51
2023-01-09T03:37:30.530Z,991.51
2023-01-09T03:38:30.529Z,991.50
2023-01-09T03:39:30.526Z,991.54
2023-01-09T03:40:30.532Z,991.49
2023-01-09T03:41:30.533Z,991.52
2023-01-09T03:42:30.588Z,991.58
2023-01-09T03:43:30.537Z,991.55
2023-01-09T03:44:30.544Z,991.51
2023-01-09T03:45:30.580Z,991.57
2023-01-09T03:46:30.555Z,991.55
2023-01-09T03:47:30.558Z,991.58
2023-01-09T03:48:30.560Z,991.56
2023-01-09T03:49:30.569Z,991.56
2023-01-09T03:50:30.565Z,991.55
2023-01-09T03:51:30.579Z,991.55
2023-01-09T03:52:30.567Z,991.51
2023-01-09T03:53:30.572Z,991.56
2023-01-09T03:54:30.572Z,991.52
2023-01-09T03:55:30.580Z,991.50
2023-01-09T03:56:30.590Z,991.51
2023-01-09T03:57:30.582Z,991.54
2023-01-09T03:58:30.702Z,991.48
2023-01-09T03:59:30.590Z,991.53
2023-01-09T04:00:30.605Z,991.49
2023-01-09T04:01:30.719Z,991.52
2023-01-09T04:02:30.602Z,991.56
2023-01-09T04:03:30.671Z,991.59
2023-01-09T04:04:30.614Z,991.54
2023-01-09T04:05:30.607Z,991.60
2023-01-09T04:06:30.608Z,991.56
2023-01-09T04:07:30.620Z,991.53
2023-01-09T04:08:30.616Z,991.58
2023-01-09T04:09:30.618Z,991.56
2023-01-09T04:10:30.619Z,991.57
2023-01-09T04:11:30.631Z,991.56
2023-01-09T04:12:30.639Z,991.62
2023-01-09T04:13:30.640Z,991.64
2023-01-09T04:14:30.656Z,991.63
2023-01-09T04:15:30.650Z,991.61
2023-01-09T04:16:30.713Z,991.63
2023-01-09T04:17:30.647Z,991.63
2023-01-09T04:18:30.662Z,991.61
2023-01-09T04:19:30.658Z,991.60
2023-01-09T04:20:30.652Z,991.65
2023-01-09T04:21:30.676Z,991.66
2023-01-09T04:22:30.663Z,991.65
2023-01-09T04:23:30.666Z,991.63
2023-01-09T04:24:30.672Z,991.63
2023-01-09T04:25:30.671Z,991.63
2023-01-09T04:26:30.703Z,991.60
2023-01-09T04:27:30.685Z,991.62
2023-01-09T04:28:30.680Z,991.58
2023-01-09T04:29:30.689Z,991.59
2023-01-09T04:30:30.719Z,991.56
2023-01-09T04:31:30.697Z,991.57
2023-01-09T04:32:30.698Z,991.57
2023-01-09T04:33:30.697Z,991.58
2023-01-09T04:34:30.698Z,991.56
2023-01-09T04:35:30.699Z,991.54
2023-01-09T04:36:30.704Z,991.55
2023-01-09T04:37:30.706Z,991.45
2023-01-09T04:38:30.709Z,991.51
2023-01-09T04:39:30.712Z,991.46
2023-01-09T04:40:30.712Z,991.45
2023-01-09T04:41:30.718Z,991.42
2023-01-09T04:42:30.714Z,991.42
2023-01-09T04:43:30.724Z,991.45
2023-01-09T04:44:30.717Z,991.39
2023-01-09T04:45:30.752Z,991.43
2023-01-09T04:46:30.744Z,991.38
2023-01-09T04:47:30.736Z,991.40
2023-01-09T04:48:30.730Z,991.34
2023-01-09T04:49:30.730Z,991.33
2023-01-09T04:50:31.520Z,991.32
2023-01-09T04:51:30.748Z,991.33
2023-01-09T04:52:30.745Z,991.26
2023-01-09T04:53:30.752Z,991.28
2023-01-09T04:54:30.753Z,991.26
2023-01-09T04:55:30.758Z,991.29
2023-01-09T04:56:30.759Z,991.26
2023-01-09T04:57:30.763Z,991.22
2023-01-09T04:58:30.757Z,991.21
2023-01-09T04:59:30.764Z,991.16
2023-01-09T05:00:30.766Z,991.14
2023-01-09T05:01:30.964Z,991.08
2023-01-09T05:02:30.817Z,991.09
2023-01-09T05:03:30.769Z,991.03
2023-01-09T05:04:30.846Z,990.97
2023-01-09T05:05:30.774Z,990.93
2023-01-09T05:06:30.779Z,990.99
2023-01-09T05:07:30.790Z,990.93
2023-01-09T05:08:30.783Z,990.95
2023-01-09T05:09:30.795Z,990.91
2023-01-09T05:10:30.797Z,990.91
2023-01-09T05:11:30.793Z,990.87
2023-01-09T05:12:30.798Z,990.86
2023-01-09T05:13:30.806Z,990.86
2023-01-09T05:14:30.798Z,990.88
2023-01-09T05:15:30.809Z,990.88
2023-01-09T05:16:30.835Z,990.92
2023-01-09T05:17:30.820Z,990.91
2023-01-09T05:18:30.839Z,990.92
2023-01-09T05:19:30.823Z,990.90
2023-01-09T05:20:30.820Z,990.89
2023-01-09T05:21:30.831Z,990.87
2023-01-09T05:22:30.831Z,990.86
2023-01-09T05:23:30.827Z,990.83
2023-01-09T05:24:30.834Z,990.85
2023-01-09T05:25:30.840Z,990.80
2023-01-09T05:26:30.837Z,990.86
2023-01-09T05:27:30.854Z,990.86
2023-01-09T05:28:30.850Z,990.82
2023-01-09T05:29:30.867Z,990.80
2023-01-09T05:30:30.855Z,990.78
2023-01-09T05:31:30.863Z,990.77
2023-01-09T05:32:30.871Z,990.79
2023-01-09T05:33:30.875Z,990.78
2023-01-09T05:34:30.882Z,990.73
2023-01-09T05:35:30.862Z,990.79
2023-01-09T05:36:30.882Z,990.76
2023-01-09T05:37:30.874Z,990.76
2023-01-09T05:38:30.878Z,990.76
2023-01-09T05:39:30.889Z,990.75
2023-01-09T05:40:39.563Z,990.76
2023-01-09T05:41:30.884Z,990.77
2023-01-09T05:42:30.885Z,990.79
2023-01-09T05:43:30.887Z,990.79
2023-01-09T05:44:30.907Z,990.80
2023-01-09T05:45:31.010Z,990.80
2023-01-09T05:46:30.893Z,990.80
2023-01-09T05:47:30.903Z,990.78
2023-01-09T05:48:30.903Z,990.78
2023-01-09T05:49:30.905Z,990.72
2023-01-09T05:50:30.938Z,990.78
2023-01-09T05:51:30.918Z,990.80
2023-01-09T05:52:30.918Z,990.79
2023-01-09T05:53:30.933Z,990.77
2023-01-09T05:54:30.932Z,990.80
2023-01-09T05:55:30.922Z,990.84
2023-01-09T05:56:30.932Z,990.80
2023-01-09T05:57:30.937Z,990.80
2023-01-09T05:58:30.930Z,990.78
2023-01-09T05:59:30.933Z,990.82
2023-01-09T06:00:30.937Z,990.79
2023-01-09T06:01:30.978Z,990.83
2023-01-09T06:02:31.067Z,990.87
2023-01-09T06:03:30.953Z,990.89
2023-01-09T06:04:30.957Z,990.89
2023-01-09T06:05:30.956Z,990.89
2023-01-09T06:06:30.980Z,990.92
2023-01-09T06:07:30.955Z,990.93
2023-01-09T06:08:30.977Z,990.96
2023-01-09T06:09:30.967Z,990.98
2023-01-09T06:10:30.972Z,991.04
2023-01-09T06:11:30.978Z,991.05
2023-01-09T06:12:30.983Z,990.99
2023-01-09T06:13:30.977Z,990.98
2023-01-09T06:14:30.986Z,990.95
2023-01-09T06:15:30.994Z,990.88
2023-01-09T06:16:30.984Z,990.90
2023-01-09T06:17:30.989Z,990.94
2023-01-09T06:18:30.992Z,990.97
2023-01-09T06:19:31.001Z,991.02
2023-01-09T06:20:31.025Z,991.05
2023-01-09T06:21:30.999Z,991.02
2023-01-09T06:22:31.119Z,991.01
2023-01-09T06:23:31.012Z,990.93
2023-01-09T06:24:31.012Z,990.95
2023-01-09T06:25:31.017Z,990.97
2023-01-09T06:26:31.019Z,990.96
2023-01-09T06:27:31.024Z,990.99
2023-01-09T06:28:31.030Z,990.99
2023-01-09T06:29:31.022Z,991.04
2023-01-09T06:30:31.026Z,991.00
2023-01-09T06:31:31.064Z,991.02
2023-01-09T06:32:31.035Z,991.07
2023-01-09T06:33:31.053Z,991.07
2023-01-09T06:34:31.048Z,991.12
2023-01-09T06:35:31.058Z,991.10
2023-01-09T06:36:31.072Z,991.14
2023-01-09T06:37:31.042Z,991.18
2023-01-09T06:38:31.087Z,991.19
2023-01-09T06:39:31.056Z,991.20
2023-01-09T06:40:31.064Z,991.18
2023-01-09T06:41:31.063Z,991.19
2023-01-09T06:42:31.066Z,991.17
2023-01-09T06:43:31.062Z,991.17
2023-01-09T06:44:31.075Z,991.16
2023-01-09T06:45:31.073Z,991.14
2023-01-09T06:46:31.149Z,991.16
2023-01-09T06:47:31.074Z,991.11
2023-01-09T06:48:31.078Z,991.12
2023-01-09T06:49:31.093Z,991.18
2023-01-09T06:50:31.088Z,991.15
2023-01-09T06:51:31.101Z,991.14
2023-01-09T06:52:31.094Z,991.20
2023-01-09T06:53:31.099Z,991.22
2023-01-09T06:54:31.147Z,991.23
2023-01-09T06:55:31.103Z,991.28
2023-01-09T06:56:31.115Z,991.29
2023-01-09T06:57:31.109Z,991.28
2023-01-09T06:58:31.121Z,991.29
2023-01-09T06:59:31.116Z,991.25
2023-01-09T07:00:31.114Z,991.27
2023-01-09T07:01:31.285Z,991.28
2023-01-09T07:02:31.130Z,991.35
2023-01-09T07:03:33.631Z,991.37
2023-01-09T07:04:31.159Z,991.38
2023-01-09T07:05:31.134Z,991.37
2023-01-09T07:06:31.139Z,991.37
2023-01-09T07:07:31.137Z,991.37
2023-01-09T07:08:31.130Z,991.40
2023-01-09T07:09:31.141Z,991.38
2023-01-09T07:10:31.160Z,991.37
2023-01-09T07:11:31.151Z,991.29
2023-01-09T07:12:31.152Z,991.31
2023-01-09T07:13:31.154Z,991.30
2023-01-09T07:14:31.157Z,991.34
2023-01-09T07:15:31.178Z,991.35
2023-01-09T07:16:31.152Z,991.38
2023-01-09T07:17:31.165Z,991.38
2023-01-09T07:18:31.158Z,991.36
2023-01-09T07:19:31.173Z,991.33
2023-01-09T07:20:31.165Z,991.32
2023-01-09T07:21:32.790Z,991.46
2023-01-09T07:22:31.181Z,991.44
2023-01-09T07:23:31.185Z,991.52
2023-01-09T07:24:31.177Z,991.54
2023-01-09T07:25:31.180Z,991.59
2023-01-09T07:26:31.217Z,991.63
2023-01-09T07:27:31.193Z,991.66
2023-01-09T07:28:31.190Z,991.68
2023-01-09T07:29:31.199Z,991.71
2023-01-09T07:30:31.195Z,991.71
2023-01-09T07:31:31.299Z,991.73
2023-01-09T07:32:31.204Z,991.76
2023-01-09T07:33:31.216Z,991.75
2023-01-09T07:34:31.221Z,991.75
2023-01-09T07:35:31.209Z,991.78
2023-01-09T07:36:31.213Z,991.82
2023-01-09T07:37:31.220Z,991.84
2023-01-09T07:38:31.219Z,991.88
2023-01-09T07:39:31.222Z,991.88
2023-01-09T07:40:31.224Z,991.87
2023-01-09T07:41:31.231Z,991.92
2023-01-09T07:42:31.261Z,991.96
2023-01-09T07:43:31.233Z,991.97
2023-01-09T07:44:31.245Z,992.01
2023-01-09T07:45:31.237Z,992.04
2023-01-09T07:46:31.259Z,992.02
2023-01-09T07:47:31.250Z,992.10
2023-01-09T07:48:31.244Z,992.11
2023-01-09T07:49:31.263Z,992.07
2023-01-09T07:50:31.249Z,992.06
2023-01-09T07:51:31.257Z,992.15
2023-01-09T07:52:31.271Z,992.13
2023-01-09T07:53:31.266Z,992.14
2023-01-09T07:54:31.275Z,992.16
2023-01-09T07:55:31.274Z,992.14
2023-01-09T07:56:31.274Z,992.12
2023-01-09T07:57:31.274Z,992.12
2023-01-09T07:58:31.295Z,992.15
2023-01-09T07:59:31.281Z,992.17
2023-01-09T08:00:33.029Z,992.20
2023-01-09T08:01:31.458Z,992.17
2023-01-09T08:02:31.334Z,992.16
2023-01-09T08:03:31.294Z,992.20
2023-01-09T08:04:31.291Z,992.22
2023-01-09T08:05:31.293Z,992.19
2023-01-09T08:06:31.298Z,992.22
2023-01-09T08:07:31.298Z,992.25
2023-01-09T08:08:31.311Z,992.22
2023-01-09T08:09:31.329Z,992.19
2023-01-09T08:10:31.310Z,992.22
2023-01-09T08:11:31.312Z,992.23
2023-01-09T08:12:31.315Z,992.20
2023-01-09T08:13:31.319Z,992.20
2023-01-09T08:14:31.341Z,992.20
2023-01-09T08:15:31.335Z,992.20
2023-01-09T08:16:31.331Z,992.22
2023-01-09T08:17:31.340Z,992.22
2023-01-09T08:18:31.347Z,992.22
2023-01-09T08:19:31.337Z,992.21
2023-01-09T08:20:31.342Z,992.20
2023-01-09T08:21:31.344Z,992.19
2023-01-09T08:22:31.344Z,992.20
2023-01-09T08:23:31.350Z,992.18
2023-01-09T08:24:31.352Z,992.22
2023-01-09T08:25:31.362Z,992.17
2023-01-09T08:26:31.365Z,992.23
2023-01-09T08:27:31.361Z,992.15
2023-01-09T08:28:31.371Z,992.22
2023-01-09T08:29:31.371Z,992.25
2023-01-09T08:30:31.460Z,992.21
2023-01-09T08:31:31.408Z,992.24
2023-01-09T08:32:31.386Z,992.28
2023-01-09T08:33:31.381Z,992.28
2023-01-09T08:34:31.456Z,992.34
2023-01-09T08:35:31.396Z,992.35
2023-01-09T08:36:31.392Z,992.34
2023-01-09T08:37:31.395Z,992.33
2023-01-09T08:38:31.399Z,992.36
2023-01-09T08:39:31.410Z,992.37
2023-01-09T08:40:31.412Z,992.41
2023-01-09T08:41:31.417Z,992.40
2023-01-09T08:42:31.419Z,992.36
2023-01-09T08:43:31.417Z,992.40
2023-01-09T08:44:31.429Z,992.43
2023-01-09T08:45:31.435Z,992.47
2023-01-09T08:46:34.017Z,992.51
2023-01-09T08:47:31.449Z,992.54
2023-01-09T08:48:31.444Z,992.54
2023-01-09T08:49:31.443Z,992.57
2023-01-09T08:50:31.465Z,992.64
2023-01-09T08:51:31.468Z,992.61
2023-01-09T08:52:31.459Z,992.67
2023-01-09T08:53:31.508Z,992.69
2023-01-09T08:54:31.525Z,992.72
2023-01-09T08:55:31.473Z,992.75
2023-01-09T08:56:31.476Z,992.78
2023-01-09T08:57:31.479Z,992.77
2023-01-09T08:58:31.487Z,992.85
2023-01-09T08:59:31.480Z,992.85
2023-01-09T09:00:31.486Z,992.92
2023-01-09T09:01:31.518Z,992.93
2023-01-09T09:02:31.556Z,992.97
2023-01-09T09:03:31.497Z,992.97
2023-01-09T09:04:31.504Z,992.95
2023-01-09T09:05:31.511Z,992.94
2023-01-09T09:06:31.510Z,992.97
2023-01-09T09:07:31.529Z,992.93
2023-01-09T09:08:31.522Z,993.00
2023-01-09T09:09:31.529Z,992.98
2023-01-09T09:10:31.527Z,993.03
2023-01-09T09:11:31.537Z,993.04
2023-01-09T09:12:31.543Z,993.05
2023-01-09T09:13:31.546Z,993.06
2023-01-09T09:14:31.543Z,993.13
2023-01-09T09:15:31.561Z,993.10
2023-01-09T09:16:31.570Z,993.12
2023-01-09T09:17:31.553Z,993.14
2023-01-09T09:18:31.603Z,993.16
2023-01-09T09:19:31.565Z,993.18
2023-01-09T09:20:31.573Z,993.19
2023-01-09T09:21:31.567Z,993.20
2023-01-09T09:22:31.587Z,993.21
2023-01-09T09:23:31.580Z,993.22
2023-01-09T09:24:31.586Z,993.24
2023-01-09T09:25:31.592Z,993.27
2023-01-09T09:26:31.587Z,993.29
2023-01-09T09:27:31.596Z,993.24
2023-01-09T09:28:31.607Z,993.24
2023-01-09T09:29:31.597Z,993.27
2023-01-09T09:30:31.603Z,993.22
2023-01-09T09:31:31.647Z,993.25
2023-01-09T09:32:31.621Z,993.23
2023-01-09T09:33:31.616Z,993.23
2023-01-09T09:34:31.646Z,993.23
2023-01-09T09:35:31.626Z,993.26
2023-01-09T09:36:31.642Z,993.27
2023-01-09T09:37:31.633Z,993.28
2023-01-09T09:38:31.649Z,993.28
2023-01-09T09:39:31.643Z,993.30
2023-01-09T09:40:31.651Z,993.29
2023-01-09T09:41:31.648Z,993.32
2023-01-09T09:42:31.653Z,993.33
2023-01-09T09:43:31.656Z,993.34
2023-01-09T09:44:31.666Z,993.32
2023-01-09T09:45:31.676Z,993.31
2023-01-09T09:46:31.789Z,993.37
2023-01-09T09:47:31.673Z,993.37
2023-01-09T09:48:31.683Z,993.40
2023-01-09T09:49:31.687Z,993.39
2023-01-09T09:50:31.704Z,993.38
2023-01-09T09:51:31.701Z,993.40
2023-01-09T09:52:31.716Z,993.43
2023-01-09T09:53:31.709Z,993.42
2023-01-09T09:54:31.721Z,993.42
2023-01-09T09:55:31.707Z,993.45
2023-01-09T09:56:31.723Z,993.46
2023-01-09T09:57:31.716Z,993.49
2023-01-09T09:58:31.730Z,993.47
2023-01-09T09:59:31.729Z,993.44
2023-01-09T10:00:31.736Z,993.47
2023-01-09T10:01:31.737Z,993.45
2023-01-09T10:02:31.769Z,993.46
2023-01-09T10:03:34.105Z,993.53
2023-01-09T10:04:31.752Z,993.48
2023-01-09T10:05:31.752Z,993.55
2023-01-09T10:06:31.778Z,993.51
2023-01-09T10:07:31.763Z,993.52
2023-01-09T10:08:31.761Z,993.52
2023-01-09T10:09:31.763Z,993.50
2023-01-09T10:10:31.769Z,993.47
2023-01-09T10:11:31.780Z,993.46
2023-01-09T10:12:31.788Z,993.46
2023-01-09T10:13:32.671Z,993.45
2023-01-09T10:14:31.803Z,993.49
2023-01-09T10:15:31.796Z,993.47
2023-01-09T10:16:31.811Z,993.44
2023-01-09T10:17:31.797Z,993.45
2023-01-09T10:18:31.803Z,993.45
2023-01-09T10:19:31.820Z,993.48
2023-01-09T10:20:31.813Z,993.46
2023-01-09T10:21:31.829Z,993.46
2023-01-09T10:22:31.880Z,993.43
2023-01-09T10:23:31.824Z,993.47
2023-01-09T10:24:31.839Z,993.48
2023-01-09T10:25:31.850Z,993.50
2023-01-09T10:26:31.846Z,993.54
2023-01-09T10:27:31.857Z,993.54
2023-01-09T10:28:31.865Z,993.54
2023-01-09T10:29:31.853Z,993.55
2023-01-09T10:30:31.855Z,993.58
2023-01-09T10:31:31.931Z,993.61
2023-01-09T10:32:31.871Z,993.62
2023-01-09T10:33:31.898Z,993.70
2023-01-09T10:34:31.879Z,993.69
2023-01-09T10:35:42.758Z,993.65
2023-01-09T10:36:32.018Z,993.70
2023-01-09T10:37:31.889Z,993.74
2023-01-09T10:38:31.929Z,993.70
2023-01-09T10:43:51.085Z,993.74
2023-01-09T10:44:51.090Z,993.68
2023-01-09T10:45:51.084Z,993.70
2023-01-09T10:46:51.199Z,993.71
2023-01-09T10:47:51.106Z,993.69
2023-01-09T10:48:51.113Z,993.65
2023-01-09T10:49:51.110Z,993.67
2023-01-09T10:50:51.125Z,993.67
2023-01-09T10:51:51.140Z,993.68
2023-01-09T10:52:51.148Z,993.72
2023-01-09T10:53:51.192Z,993.66
2023-01-09T10:54:51.151Z,993.65
2023-01-09T10:55:51.161Z,993.60
2023-01-09T11:01:00.341Z,993.63
2023-01-09T11:02:00.400Z,993.58
2023-01-09T11:03:00.401Z,993.61
2023-01-09T11:04:00.347Z,993.52
2023-01-09T11:05:00.356Z,993.60
2023-01-09T11:06:00.373Z,993.53
2023-01-09T11:07:03.013Z,993.51
2023-01-09T11:08:00.397Z,993.49
2023-01-09T11:09:00.437Z,993.45
2023-01-09T11:10:00.410Z,993.45
2023-01-09T11:11:00.422Z,993.44
2023-01-09T11:12:03.045Z,993.43
2023-01-09T11:13:00.443Z,993.44
2023-01-09T11:14:00.444Z,993.46
2023-01-09T11:15:00.457Z,993.48
2023-01-09T11:16:00.512Z,993.48
2023-01-09T11:17:00.485Z,993.45
2023-01-09T11:18:00.493Z,993.48
2023-01-09T11:19:00.511Z,993.47
2023-01-09T11:44:49.498Z,993.29
2023-01-09T11:46:00.180Z,993.29
2023-01-09T11:46:49.553Z,993.30
2023-01-09T11:47:49.521Z,993.31
2023-01-09T11:48:50.729Z,993.30
2023-01-09T11:49:51.328Z,993.34
2023-01-09T11:50:49.539Z,993.30
2023-01-09T11:51:52.574Z,993.32
2023-01-09T11:52:49.561Z,993.36
2023-01-09T11:53:49.567Z,993.36
2023-01-09T11:54:49.572Z,993.34
2023-01-09T11:55:49.599Z,993.34
2023-01-09T11:56:49.587Z,993.35
2023-01-09T11:57:49.613Z,993.32
2023-01-09T11:58:49.615Z,993.37
2023-01-09T11:59:49.621Z,993.38
2023-01-09T12:00:49.648Z,993.37
2023-01-09T12:01:49.671Z,993.34
2023-01-09T12:02:51.454Z,993.36
2023-01-09T12:03:49.656Z,993.30
2023-01-09T12:04:49.657Z,993.35
2023-01-09T12:05:49.664Z,993.32
2023-01-09T12:06:49.681Z,993.30
2023-01-09T12:07:49.679Z,993.33
2023-01-09T12:08:49.696Z,993.39
2023-01-09T12:10:32.248Z,993.34
2023-01-09T12:11:32.263Z,993.35
2023-01-09T12:12:32.254Z,993.30
2023-01-09T12:13:32.265Z,993.33
2023-01-09T12:14:32.274Z,993.30
2023-01-09T12:15:32.285Z,993.33
2023-01-09T12:16:32.377Z,993.28
2023-01-09T12:17:32.299Z,993.30
2023-01-09T12:18:32.574Z,993.31
2023-01-09T12:19:32.348Z,993.27
2023-01-09T12:20:32.323Z,993.26
2023-01-09T12:21:32.323Z,993.27
2023-01-09T12:22:32.335Z,993.27
2023-01-09T12:23:32.341Z,993.31
2023-01-09T12:24:32.348Z,993.26
2023-01-09T12:25:32.356Z,993.26
2023-01-09T12:26:32.363Z,993.24
2023-01-09T12:27:32.369Z,993.26
2023-01-09T12:28:32.374Z,993.19
2023-01-09T12:29:32.395Z,993.21
2023-01-09T12:30:32.382Z,993.20
2023-01-09T12:31:32.426Z,993.21
2023-01-09T12:32:32.501Z,993.21
2023-01-09T12:33:32.405Z,993.16
2023-01-09T12:34:32.417Z,993.16
2023-01-09T12:35:32.432Z,993.15
2023-01-09T12:36:32.478Z,993.14
2023-01-09T12:37:32.428Z,993.17
2023-01-09T12:38:32.440Z,993.14
2023-01-09T12:39:32.443Z,993.17
2023-01-09T12:40:32.453Z,993.16
2023-01-09T12:41:32.482Z,993.13
2023-01-09T12:42:32.465Z,993.10
2023-01-09T12:43:32.470Z,993.13
2023-01-09T12:44:35.948Z,993.18
2023-01-09T12:45:32.532Z,993.11
2023-01-09T12:46:32.496Z,993.10
2023-01-09T12:47:32.500Z,993.04
2023-01-09T12:48:32.544Z,993.07
2023-01-09T12:49:32.502Z,993.09
2023-01-09T12:50:32.518Z,993.07
2023-01-09T12:51:32.521Z,993.17
2023-01-09T12:52:32.533Z,993.16
2023-01-09T12:53:32.537Z,993.18
2023-01-09T12:54:32.546Z,993.20
2023-01-09T12:55:32.543Z,993.18
2023-01-09T12:56:32.557Z,993.17
2023-01-09T12:57:32.561Z,993.13
2023-01-09T12:58:32.558Z,993.16
2023-01-09T12:59:32.628Z,993.21
2023-01-09T13:00:32.588Z,993.23
2023-01-09T13:01:32.609Z,993.22
2023-01-09T13:02:32.774Z,993.26